createdAt,value
2018-07-11T00:01:01.186Z,4.00
2018-07-11T00:04:34.424Z,5.27
2018-07-11T00:08:07.660Z,3.90
2018-07-11T00:11:40.890Z,4.17
2018-07-11T00:15:14.117Z,4.40
2018-07-11T00:18:47.335Z,3.90
2018-07-11T00:22:20.560Z,3.90
2018-07-11T00:25:53.812Z,4.63
2018-07-11T00:29:27.083Z,4.00
2018-07-11T00:33:00.325Z,4.07
2018-07-11T00:36:33.287Z,4.57
2018-07-11T00:40:06.528Z,5.00
2018-07-11T00:43:39.761Z,4.30
2018-07-11T00:47:13.012Z,4.77
2018-07-11T00:50:46.059Z,3.50
2018-07-11T00:54:19.497Z,3.90
2018-07-11T00:57:52.725Z,4.80
2018-07-11T01:01:25.989Z,4.53
2018-07-11T01:04:59.228Z,3.90
2018-07-11T01:08:33.784Z,4.47
2018-07-11T01:12:07.033Z,4.90
2018-07-11T01:15:40.264Z,4.50
2018-07-11T01:19:14.272Z,4.53
2018-07-11T01:22:47.496Z,4.30
2018-07-11T01:26:23.864Z,4.77
2018-07-11T01:29:57.103Z,4.40
2018-07-11T01:33:30.341Z,4.47
2018-07-11T01:37:03.581Z,4.67
2018-07-11T01:40:36.830Z,4.73
2018-07-11T01:44:10.048Z,4.30
2018-07-11T01:47:43.283Z,5.20
2018-07-11T01:51:16.529Z,4.90
2018-07-11T01:54:49.780Z,5.90
2018-07-11T01:58:23.057Z,6.23
2018-07-11T02:01:56.313Z,6.47
2018-07-11T02:05:29.575Z,5.93
2018-07-11T02:09:02.856Z,7.50
2018-07-11T02:12:36.514Z,6.67
2018-07-11T02:16:09.778Z,7.27
2018-07-11T02:19:43.381Z,6.90
2018-07-11T02:23:16.653Z,7.90
2018-07-11T02:26:49.929Z,7.50
2018-07-11T02:30:23.215Z,7.67
2018-07-11T02:33:56.469Z,7.20
2018-07-11T02:37:29.712Z,7.40
2018-07-11T02:41:02.950Z,8.30
2018-07-11T02:44:36.180Z,8.10
2018-07-11T02:48:09.449Z,8.27
2018-07-11T02:51:42.488Z,7.80
2018-07-11T02:55:15.749Z,7.40
2018-07-11T02:58:48.980Z,7.30
2018-07-11T03:02:22.241Z,7.30
2018-07-11T03:05:55.469Z,6.97
2018-07-11T03:09:28.704Z,7.67
2018-07-11T03:13:01.946Z,8.90
2018-07-11T03:16:35.159Z,8.93
2018-07-11T03:20:08.389Z,8.00
2018-07-11T03:23:41.668Z,8.73
2018-07-11T03:27:14.921Z,9.60
2018-07-11T03:30:48.275Z,10.30
2018-07-11T03:34:21.533Z,10.50
2018-07-11T03:37:54.871Z,9.50
2018-07-11T03:41:28.137Z,10.27
2018-07-11T03:45:01.399Z,8.90
2018-07-11T03:48:34.662Z,9.80
2018-07-11T03:52:07.904Z,8.93
2018-07-11T03:55:41.140Z,8.23
2018-07-11T03:59:14.364Z,7.80
2018-07-11T04:02:47.588Z,8.67
2018-07-11T04:06:20.800Z,7.90
2018-07-11T04:09:54.042Z,7.87
2018-07-11T04:13:27.077Z,8.20
2018-07-11T04:17:00.308Z,7.90
2018-07-11T04:20:33.544Z,7.27
2018-07-11T04:24:06.795Z,8.30
2018-07-11T04:27:40.024Z,7.17
2018-07-11T04:31:13.241Z,7.23
2018-07-11T04:34:46.484Z,8.50
2018-07-11T04:38:19.762Z,7.80
2018-07-11T04:41:52.984Z,8.83
2018-07-11T04:45:26.220Z,9.60
2018-07-11T04:48:59.538Z,8.97
2018-07-11T04:52:32.844Z,6.90
2018-07-11T04:56:06.065Z,8.87
2018-07-11T04:59:39.376Z,8.33
2018-07-11T05:03:12.624Z,9.17
2018-07-11T05:06:45.856Z,8.50
2018-07-11T05:10:19.130Z,8.03
2018-07-11T05:13:52.118Z,8.90
2018-07-11T05:17:25.357Z,9.80
2018-07-11T05:20:58.589Z,9.97
2018-07-11T05:24:31.825Z,9.03
2018-07-11T05:28:05.180Z,10.20
2018-07-11T05:31:38.473Z,9.73
2018-07-11T05:35:11.693Z,9.60
2018-07-11T05:38:44.944Z,9.30
2018-07-11T05:42:17.996Z,10.10
2018-07-11T05:45:51.197Z,8.97
2018-07-11T05:49:24.428Z,10.73
2018-07-11T05:52:57.667Z,9.20
2018-07-11T05:56:30.907Z,10.33
2018-07-11T06:00:04.173Z,9.77
2018-07-11T06:03:37.406Z,9.67
2018-07-11T06:07:10.650Z,8.90
2018-07-11T06:10:43.880Z,9.53
2018-07-11T06:14:17.140Z,8.80
2018-07-11T06:17:50.389Z,8.30
2018-07-11T06:21:24.111Z,9.67
2018-07-11T06:24:57.344Z,9.67
2018-07-11T06:28:30.670Z,8.57
2018-07-11T06:32:03.995Z,9.67
2018-07-11T06:35:37.355Z,9.10
2018-07-11T06:39:10.618Z,11.00
2018-07-11T06:42:44.266Z,9.47
2018-07-11T06:46:17.554Z,10.63
2018-07-11T06:49:50.817Z,10.80
2018-07-11T06:53:24.094Z,10.17
2018-07-11T06:56:57.351Z,8.70
2018-07-11T07:00:30.350Z,10.60
2018-07-11T07:04:03.619Z,9.87
2018-07-11T07:07:36.888Z,10.20
2018-07-11T07:11:10.133Z,9.63
2018-07-11T07:14:43.398Z,9.40
2018-07-11T07:18:16.724Z,10.03
2018-07-11T07:21:49.988Z,11.23
2018-07-11T07:25:23.257Z,10.37
2018-07-11T07:28:56.529Z,11.80
2018-07-11T07:32:29.760Z,12.03
2018-07-11T07:36:03.026Z,10.17
2018-07-11T07:39:36.297Z,10.90
2018-07-11T07:43:09.544Z,9.53
2018-07-11T07:46:46.878Z,9.93
2018-07-11T07:50:20.154Z,10.37
2018-07-11T07:53:53.486Z,9.83
2018-07-11T07:57:28.001Z,10.47
2018-07-11T08:01:01.258Z,10.50
2018-07-11T08:04:34.527Z,10.60
2018-07-11T08:08:07.797Z,10.63
2018-07-11T08:11:41.096Z,9.13
2018-07-11T08:15:14.359Z,9.73
2018-07-11T08:18:47.619Z,10.50
2018-07-11T08:23:35.446Z,8.73
2018-07-11T08:27:18.909Z,9.00
2018-07-11T08:31:07.918Z,8.10
2018-07-11T08:34:59.012Z,7.33
2018-07-11T08:38:46.124Z,8.17
2018-07-11T08:42:40.424Z,6.67
2018-07-11T08:48:27.067Z,7.80
2018-07-11T08:54:13.440Z,7.87
2018-07-11T08:59:17.313Z,7.97
2018-07-11T09:05:04.583Z,7.60
2018-07-11T09:11:09.222Z,7.87
2018-07-11T09:17:01.209Z,8.37
2018-07-11T09:20:45.368Z,8.97
2018-07-11T09:24:28.661Z,9.03
2018-07-11T09:28:01.859Z,10.00
2018-07-11T09:31:35.117Z,8.60
2018-07-11T09:35:08.366Z,6.63
2018-07-11T09:38:41.629Z,6.53
2018-07-11T09:42:15.329Z,7.10
2018-07-11T09:45:48.604Z,6.20
2018-07-11T09:49:22.066Z,7.07
2018-07-11T09:52:55.315Z,6.17
2018-07-11T09:56:28.704Z,6.87
2018-07-11T10:00:01.969Z,5.83
2018-07-11T10:03:35.299Z,6.13
2018-07-11T10:07:08.587Z,5.67
2018-07-11T10:10:41.852Z,7.13
2018-07-11T10:14:15.117Z,5.60
2018-07-11T10:17:48.398Z,6.67
2018-07-11T10:21:21.533Z,5.50
2018-07-11T10:24:54.798Z,6.40
2018-07-11T10:28:28.040Z,5.90
2018-07-11T10:32:01.288Z,6.20
2018-07-11T10:35:34.524Z,6.70
2018-07-11T10:39:07.858Z,6.63
2018-07-11T10:42:41.088Z,6.00
2018-07-11T10:46:14.384Z,8.40
2018-07-11T10:49:47.714Z,7.80
2018-07-11T10:53:21.083Z,8.20
2018-07-11T10:56:54.681Z,6.70
2018-07-11T11:00:36.664Z,6.50
2018-07-11T11:04:02.848Z,6.67
2018-07-11T11:07:35.837Z,6.77
2018-07-11T11:11:09.395Z,7.50
2018-07-11T11:14:42.722Z,6.87
2018-07-11T11:18:16.007Z,7.27
2018-07-11T11:21:49.261Z,7.20
2018-07-11T11:25:22.546Z,8.17
2018-07-11T11:28:55.813Z,7.57
2018-07-11T11:32:29.224Z,7.90
2018-07-11T11:36:02.525Z,6.93
2018-07-11T11:39:35.769Z,8.10
2018-07-11T11:43:09.030Z,7.33
2018-07-11T11:46:42.319Z,7.83
2018-07-11T11:50:15.606Z,5.30
2018-07-11T11:53:48.887Z,6.30
2018-07-11T11:57:22.550Z,5.97
2018-07-11T12:00:55.798Z,5.50
2018-07-11T12:04:29.081Z,5.77
2018-07-11T12:08:03.711Z,4.33
2018-07-11T12:11:37.062Z,4.53
2018-07-11T12:15:10.526Z,3.90
2018-07-11T12:18:43.867Z,4.10
2018-07-11T12:22:20.969Z,5.50
2018-07-11T12:26:09.107Z,5.10
2018-07-11T12:29:42.385Z,5.27
2018-07-11T12:33:15.648Z,4.77
2018-07-11T12:36:48.898Z,3.80
2018-07-11T12:40:22.198Z,4.10
2018-07-11T12:43:55.469Z,3.03
2018-07-11T12:47:34.154Z,2.60
2018-07-11T12:51:07.465Z,3.07
2018-07-11T12:54:40.481Z,3.13
2018-07-11T12:58:13.776Z,3.30
2018-07-11T13:01:46.805Z,3.83
2018-07-11T13:05:20.585Z,3.33
2018-07-11T13:08:53.596Z,2.40
2018-07-11T13:12:26.863Z,2.73
2018-07-11T13:16:00.222Z,2.67
2018-07-11T13:19:33.419Z,2.90
2018-07-11T13:23:06.682Z,3.80
2018-07-11T13:26:39.949Z,3.33
2018-07-11T13:30:13.209Z,3.57
2018-07-11T13:33:46.505Z,3.10
2018-07-11T13:37:19.771Z,4.73
2018-07-11T13:40:52.760Z,2.70
2018-07-11T13:44:26.016Z,3.80
2018-07-11T13:48:01.218Z,3.17
2018-07-11T13:51:34.220Z,3.30
2018-07-11T13:55:07.556Z,3.13
2018-07-11T13:58:42.506Z,3.40
2018-07-11T14:02:15.782Z,3.10
2018-07-11T14:05:49.041Z,2.90
2018-07-11T14:09:22.672Z,3.60
2018-07-11T14:12:56.380Z,4.13
2018-07-11T14:16:29.836Z,3.40
2018-07-11T14:20:03.231Z,3.93
2018-07-11T14:23:39.977Z,3.73
2018-07-11T14:27:14.353Z,3.17
2018-07-11T14:30:47.978Z,3.87
2018-07-11T14:34:21.978Z,3.10
2018-07-11T14:37:55.602Z,3.00
2018-07-11T14:41:28.922Z,3.53
2018-07-11T14:45:02.077Z,3.50
2018-07-11T14:48:35.589Z,3.90
2018-07-11T14:52:08.935Z,3.80
2018-07-11T14:55:42.295Z,3.33
2018-07-11T14:59:15.728Z,4.30
2018-07-11T15:02:48.888Z,3.47
2018-07-11T15:06:23.051Z,3.50
2018-07-11T15:09:56.494Z,4.17
2018-07-11T15:13:29.909Z,3.13
2018-07-11T15:17:03.271Z,3.30
2018-07-11T15:20:36.648Z,2.90
2018-07-11T15:24:09.988Z,3.67
2018-07-11T15:27:43.554Z,3.00
2018-07-11T15:31:16.890Z,3.07
2018-07-11T15:34:51.369Z,3.40
2018-07-11T15:38:25.766Z,3.50
2018-07-11T15:42:00.455Z,2.93
2018-07-11T15:45:33.737Z,5.30
2018-07-11T15:49:07.210Z,3.97
2018-07-11T15:52:40.853Z,3.07
2018-07-11T15:56:14.132Z,2.33
2018-07-11T15:59:52.516Z,3.33
2018-07-11T16:03:26.556Z,3.00
2018-07-11T16:07:03.753Z,2.87
2018-07-11T16:10:45.751Z,2.80
2018-07-11T16:14:19.015Z,3.30
2018-07-11T16:17:52.374Z,2.70
2018-07-11T16:21:25.665Z,2.80
2018-07-11T16:24:58.970Z,2.70
2018-07-11T16:28:32.729Z,2.60
2018-07-11T16:32:06.569Z,2.87
2018-07-11T16:35:39.836Z,2.40
2018-07-11T16:39:13.100Z,2.97
2018-07-11T16:42:46.377Z,3.03
2018-07-11T16:46:19.658Z,3.17
2018-07-11T16:49:52.953Z,3.43
2018-07-11T16:53:25.951Z,3.40
2018-07-11T16:56:59.097Z,3.40
2018-07-11T17:00:33.705Z,2.93
2018-07-11T17:04:08.521Z,3.47
2018-07-11T17:07:52.593Z,3.83
2018-07-11T17:11:27.019Z,3.60
2018-07-11T17:15:01.052Z,4.60
2018-07-11T17:18:40.771Z,5.40
2018-07-11T17:22:14.264Z,5.27
2018-07-11T17:25:47.573Z,4.10
2018-07-11T17:29:26.148Z,3.80
2018-07-11T17:33:00.125Z,4.27
2018-07-11T17:36:35.438Z,3.97
2018-07-11T17:40:10.953Z,4.37
2018-07-11T17:43:47.446Z,3.73
2018-07-11T17:47:23.017Z,4.03
2018-07-11T17:51:00.426Z,3.70
2018-07-11T17:54:42.337Z,4.23
2018-07-11T17:58:15.622Z,3.70
2018-07-11T18:01:51.536Z,4.17
2018-07-11T18:05:32.124Z,4.37
2018-07-11T18:09:07.241Z,4.40
2018-07-11T18:12:52.701Z,5.13
2018-07-11T18:16:38.841Z,5.17
2018-07-11T18:20:32.632Z,4.97
2018-07-11T18:24:11.256Z,4.60
2018-07-11T18:30:00.464Z,5.00
2018-07-11T18:33:50.624Z,4.30
2018-07-11T18:37:35.497Z,5.63
2018-07-11T18:41:14.638Z,4.10
2018-07-11T18:44:57.554Z,4.80
2018-07-11T18:49:38.993Z,4.73
2018-07-11T18:53:20.728Z,4.57
2018-07-11T18:57:03.774Z,5.40
2018-07-11T19:00:47.422Z,4.90
2018-07-11T19:04:30.286Z,4.90
2018-07-11T19:08:10.461Z,4.33
2018-07-11T19:11:54.177Z,3.70
2018-07-11T19:15:32.682Z,4.20
2018-07-11T19:19:09.198Z,3.77
2018-07-11T19:22:59.904Z,4.23
2018-07-11T19:26:42.157Z,4.17
2018-07-11T19:30:28.165Z,3.40
2018-07-11T19:34:12.772Z,4.07
2018-07-11T19:37:54.861Z,3.77
2018-07-11T19:41:41.021Z,3.70
2018-07-11T19:45:21.365Z,3.90
2018-07-11T19:49:13.945Z,3.67
2018-07-11T19:52:56.294Z,4.13
2018-07-11T19:56:46.306Z,3.87
2018-07-11T20:00:19.673Z,3.50
2018-07-11T20:03:52.984Z,4.40
2018-07-11T20:07:26.274Z,4.00
2018-07-11T20:10:59.577Z,4.10
2018-07-11T20:14:32.886Z,3.47
2018-07-11T20:18:06.161Z,3.60
2018-07-11T20:21:39.152Z,3.93
2018-07-11T20:25:12.442Z,3.47
2018-07-11T20:28:45.753Z,4.30
2018-07-11T20:32:19.073Z,4.53
2018-07-11T20:35:52.104Z,4.70
2018-07-11T20:39:25.388Z,4.10
2018-07-11T20:42:58.650Z,4.10
2018-07-11T20:46:32.900Z,4.80
2018-07-11T20:50:06.220Z,3.90
2018-07-11T20:53:39.566Z,4.20
2018-07-11T20:57:12.869Z,4.27
2018-07-11T21:00:57.377Z,3.80
2018-07-11T21:04:42.096Z,4.57
2018-07-11T21:08:58.945Z,4.40
2018-07-11T21:15:44.709Z,4.03
2018-07-11T21:19:17.957Z,4.73
2018-07-11T21:22:51.212Z,4.27
2018-07-11T21:26:24.562Z,4.50
2018-07-11T21:29:57.833Z,4.67
2018-07-11T21:33:31.260Z,4.77
2018-07-11T21:37:04.793Z,5.03
2018-07-11T21:40:38.641Z,4.60
2018-07-11T21:44:11.896Z,5.13
2018-07-11T21:47:45.168Z,4.40
2018-07-11T21:51:18.473Z,3.80
2018-07-11T21:54:51.747Z,4.50
2018-07-11T21:58:25.070Z,3.77
2018-07-11T22:01:58.356Z,4.40
2018-07-11T22:05:32.179Z,4.30
2018-07-11T22:09:05.857Z,3.83
2018-07-11T22:12:39.149Z,4.53
2018-07-11T22:16:12.437Z,4.30
2018-07-11T22:19:45.137Z,5.20
2018-07-11T22:23:17.421Z,4.23
2018-07-11T22:26:49.661Z,4.83
2018-07-11T22:30:22.176Z,5.47
2018-07-11T22:33:54.446Z,5.50
2018-07-11T22:37:26.828Z,4.30
2018-07-11T22:40:59.120Z,5.23
2018-07-11T22:44:31.409Z,3.90
2018-07-11T22:48:04.863Z,4.57
2018-07-11T22:51:37.129Z,5.27
2018-07-11T22:55:09.389Z,4.87
2018-07-11T22:58:44.728Z,5.73
2018-07-11T23:02:17.134Z,4.73
2018-07-11T23:05:49.395Z,5.23
2018-07-11T23:09:21.633Z,4.70
2018-07-11T23:12:53.898Z,5.40
2018-07-11T23:16:26.168Z,4.50
2018-07-11T23:19:58.425Z,5.20
2018-07-11T23:23:30.694Z,5.80
2018-07-11T23:27:02.959Z,5.10
2018-07-11T23:30:35.245Z,5.20
2018-07-11T23:34:07.673Z,5.70
2018-07-11T23:37:39.943Z,6.17
2018-07-11T23:41:12.205Z,7.30
2018-07-11T23:44:44.449Z,5.83
2018-07-11T23:48:16.726Z,6.80
2018-07-11T23:51:48.993Z,7.13
2018-07-11T23:55:21.257Z,7.90
2018-07-11T23:58:53.521Z,7.50
